Heyford Park Airbase Races
Skip Navigation Links
20 March 2016
HyperLink
Click your name for detailed results
Page 1 of 5 (223 items)
[1]2345
Pos
Bib No
Fav
Share
Print
Name
Gun Time
Chip Time
Category
Cat Pos
Gender
Gen Pos
Club
Team
Pace
1191Chris SHARP1:12:20.11:12:20.1Top 31Male1KNOWLE & DORRIDGE RUNNING CLUB 10.9 m/hr
2251Mark DUCKER1:18:49.31:18:47.0Top 32Male2SOUTHVILLE RUNNING CLUB 10.0 m/hr
385Jesus GONZALEZ TEJERIA1:20:15.71:20:15.7Top 33Male3BEARBROOK RC  9.8 m/hr
444Tim COOK1:21:22.31:21:21.2Sen1Male4WATFORD JOGGERS  9.7 m/hr
5132Simon LEUNG-CHESTER1:23:28.41:23:25.3V401Male5EAST END ROAD RUNNERS  9.4 m/hr
6169Pearce PHILLIPS1:23:32.01:23:24.6V402Male6BEARBROOK RC  9.4 m/hr
716Simon BLIZZARD1:24:14.31:24:13.2Sen2Male7DUDLEY KINGSWINFORD  9.3 m/hr
8156Hamilton NICKLES1:25:59.31:25:57.7Sen3Male8   9.1 m/hr
912Mark BELL1:26:07.21:26:03.6Sen4Male9   9.1 m/hr
1036Matthew COAKES1:26:09.01:26:03.0Sen5Male10   9.1 m/hr
1177Stephen GARDINER1:26:10.11:26:07.1Sen6Male11   9.1 m/hr
12151Louis MONTFORT1:26:54.21:26:46.2Sen7Male12   9.0 m/hr
13206Alan SPRING WALLIS1:27:17.01:27:12.7Sen8Male13   9.0 m/hr
14195Mark SIMMS1:27:58.31:27:50.7V403Male14   8.9 m/hr
15133Paul LEVERTON1:28:03.61:27:49.5Sen9Male15   8.9 m/hr
16104Gareth HEALY1:28:16.81:28:16.8V404Male16   8.9 m/hr
1721Barry BRIERLEY1:28:36.81:28:34.3V405Male17   8.9 m/hr
18157Christopher NOBLE1:29:07.11:29:05.0V501Male18BRACKLEY & DISTRICT RUNNING CLUB  8.8 m/hr
19192James SHAW1:29:11.91:28:52.6Sen10Male19   8.8 m/hr
2089Raphael GOSSET1:29:19.51:29:17.8Sen11Male20   8.8 m/hr
21210Jonathan STIFF1:29:21.31:29:12.2Sen12Male21   8.8 m/hr
2234Daniel CLIFTON1:29:57.11:29:50.8Sen13Male22   8.7 m/hr
23200Charles SINTON1:30:40.31:30:27.4V406Male23 CHARLBURYELITE 8.7 m/hr
2499Henry HAMILTON1:31:08.31:31:04.3Sen14Male24LONDON HEATHSIDE AC  8.6 m/hr
2586Abi GOOCH1:31:45.81:31:31.0Top 31Female1REDWAY RUNNERSTHAMES VALLEY POLICE 8.6 m/hr
26119Garry JAMES1:31:52.21:31:48.2Sen15Male25ALCHESTER  8.6 m/hr
2783Matthew GILBERT1:31:53.31:31:47.7V407Male26   8.6 m/hr
2823Kevin BROWN1:32:20.61:32:16.7V408Male27BUCKINGHAM & STOWE RC  8.5 m/hr
2932Jon CHILDS1:32:59.11:32:50.1Sen16Male28   8.5 m/hr
3051Louise DOBBY1:33:54.71:33:48.1Top 32Female2   8.4 m/hr
3174Anneka FRENCH1:34:04.31:33:45.9Top 33Female3   8.4 m/hr
3263Anthony FARMER1:34:32.31:34:25.4V409Male29   8.3 m/hr
33186Alex SCOTT1:35:04.41:34:43.5V4010Male30 DEW DROP RUNNERS 8.3 m/hr
3455Richard DUNBABIN1:35:20.71:35:13.1V502Male31WOODSTOCK HARRIERS  8.2 m/hr
35189Robin SEDDON1:35:47.11:35:35.8Sen17Male32   8.2 m/hr
362Peter ALGAR1:35:48.81:35:40.6V4011Male33   8.2 m/hr
3797Laura GUSH1:35:54.01:35:54.0Sen1Female4BEARBROOK RC  8.2 m/hr
38248Cally CHAMBERS1:36:11.11:36:02.2Sen2Female5   8.2 m/hr
39159Adam O'NIONS1:36:15.01:35:57.9Sen18Male34KNOWLE & DORRIDGE RUNNING CLUB  8.2 m/hr
4026Paul BUSHBY1:36:18.61:36:13.5V503Male35MARLOW STRIDERS  8.2 m/hr
41121Andrew JOHNSON1:36:48.61:36:47.5V70+1Male36LEAMINGTON C & AC  8.1 m/hr
42167Ben PETERS1:37:39.01:37:26.3Sen19Male37 CHARLBURYELITE 8.0 m/hr
4396Imran GULAMHUSEINWALA1:37:58.91:37:34.4V4012Male38   8.0 m/hr
44173Steve PRICE1:38:37.31:38:27.6Sen20Male39 OXFORD SPIRES SCAFFOLDING 8.0 m/hr
45115Jerry HUXTABLE1:38:37.41:38:31.4V504Male40   8.0 m/hr
46254Ziyaad ISMAIL1:38:48.41:38:42.5Sen21Male41   8.0 m/hr
47249Philip COWHIG1:38:50.81:38:44.2V4013Male42TEAM KENNET  8.0 m/hr
4894Rob GROSSE1:38:57.91:38:50.4Sen22Male43   7.9 m/hr
49108Paul HIRONS1:39:08.81:38:45.8V4014Male44   7.9 m/hr
50116Steve HUYTON1:39:22.01:39:16.2V505Male45WARGRAVE RUNNERS  7.9 m/hr
Page 1 of 5 (223 items)
[1]2345
fb